Weather observations for the past three days for
Victoria, Victoria Regional Airport
Metric (Imperial)
Date Time (cdt) Wind (kph) Vis. (km) Weather Sky Cond. Temperature (ºC) Relative Humidity Wind Chill (°C) Heat Index (°C) Pressure Precipitation (cm)
Air Dwpt 6 hour altimeter (cm) sea level (mb) 1 hr 3 hr 6 hr
Max. Min.
02 16:51 S 26 G 33 16.09 Fair CLR 38.3 21.7 38% 43 75.82 1010.5
02 15:51 SE 31 G 44 16.09 Partly Cloudy SCT065 37.8 22.8 42% 44 75.87 1011.1
02 14:51 S 15 16.09 Fair CLR 39.4 21.1 35% 44 75.92 1012.0
02 13:51 SW 13 16.09 Fair CLR 37.8 20 35% 41 76 1012.9
02 12:51 SW 13 16.09 Fair CLR 36.1 22.2 36.1 26.1 45% 41 76.1 1014.1
02 11:51 S 17 16.09 Fair CLR 34.4 22.8 51% 40 76.15 1015.1
02 10:51 SW 17 16.09 Fair CLR 32.2 23.3 59% 37 76.17 1015.4
02 09:51 SW 17 16.09 Fair CLR 30.6 24.4 70% 36 76.15 1015.1
02 08:51 SW 19 16.09 Fair CLR 27.8 25 85% 32 76.15 1015.0
02 07:51 S 7 14.48 Fair CLR 26.1 25 94% 28 76.12 1014.7
02 06:51 SW 9 16.09 Fair CLR 26.1 25 26.7 26.1 94% 28 76.07 1014.1
02 05:51 S 9 16.09 Fair CLR 26.1 25 94% 28 76.07 1013.8
02 04:51 SW 7 16.09 Fair CLR 26.1 25 94% 28 76.05 1013.7
02 03:51 S 9 16.09 Fair CLR 26.1 25 94% 28 76.07 1013.7
02 02:51 SW 9 16.09 Fair CLR 26.7 25.6 94% 30 76.1 1014.3
02 01:51 S 11 16.09 Fair CLR 26.1 25 94% 28 76.1 1014.1
02 00:51 S 6 16.09 Fair CLR 26.1 25 27.2 26.1 94% 28 76.1 1014.2 0.13
01 23:51 S 9 16.09 Fair CLR 26.7 25 90% 30 76.1 1014.1
01 22:51 S 9 16.09 Fair CLR 26.7 24.4 87% 30 76.07 1013.9
01 21:51 S 11 16.09 Fair CLR 26.7 24.4 87% 30 76.02 1013.4 0.13
01 20:51 S 11 16.09 Fair CLR 26.7 24.4 87% 30 75.97 1012.5
01 19:51 S 13 16.09 A Few Clouds FEW055 27.2 25.6 91% 31 75.95 1012.4 0.13
01 18:51 S 30 G 44 2.41 Light Rain SCT043 BKN055 OVC080 26.7 23.9 39.4 26.7 85% 29 76 1012.9 0.79 0.79
01 17:51 SE 19 16.09 Partly Cloudy SCT065 37.2 22.2 42% 42 75.87 1011.3
01 16:51 SE 19 16.09 Mostly Cloudy SCT065 BKN120 36.1 21.7 43% 41 75.9 1011.5
01 15:51 SE 13 16.09 Partly Cloudy FEW065 SCT090 37.8 20 35% 41 75.92 1011.9
01 14:51 S 11 16.09 Fair CLR 38.3 20.6 36% 42 75.97 1012.6
01 13:51 Vrbl 6 16.09 Partly Cloudy SCT060 38.9 20.6 35% 43 76.05 1013.7
01 12:51 W 6 16.09 Overcast OVC055 37.8 21.1 38.3 22.8 38% 42 76.12 1014.6
01 11:51 Vrbl 6 16.09 Partly Cloudy SCT040 35.6 21.1 43% 39 76.2 1015.6
01 10:51 Calm 16.09 Partly Cloudy SCT035 SCT055 32.8 22.8 56% 38 76.2 1015.8
01 09:51 NW 7 16.09 Partly Cloudy SCT040 31.1 24.4 68% 37 76.23 1015.8
01 08:51 N 6 16.09 Fair CLR 27.8 24.4 82% 32 76.2 1015.8
01 07:51 N 7 11.27 Fair CLR 24.4 23.3 94% 24 76.17 1015.3
01 06:51 N 6 12.87 A Few Clouds FEW018 23.3 22.2 26.1 23.3 94% 76.12 1014.8
01 05:51 Calm 14.48 Fair CLR 23.3 22.2 94% 76.1 1014.2
01 04:51 Calm 14.48 Fair CLR 23.3 22.2 94% 76.1 1014.4
01 03:51 Calm 16.09 Fair CLR 24.4 22.8 91% 24 76.12 1014.6
01 02:51 Calm 16.09 Fair CLR 25 23.3 90% 26 76.12 1014.7
01 01:51 S 9 16.09 Partly Cloudy SCT110 25.6 23.3 87% 27 76.15 1014.8
01 00:51 SE 7 16.09 Fair CLR 26.1 23.9 33.9 26.1 88% 28 76.15 1014.8
31 23:51 S 9 16.09 Fair CLR 26.1 23.9 88% 28 76.12 1014.6
31 22:51 SE 9 16.09 Fair CLR 27.2 23.9 82% 30 76.15 1014.8
31 20:51 SE 19 16.09 Fair CLR 28.9 24.4 77% 34 76.05 1013.6
31 19:51 SE 22 16.09 Fair CLR 31.1 23.3 63% 36 76.02 1013.2
31 18:51 E 26 G 39 16.09 Fair CLR 33.9 20.6 38.9 33.3 46% 37 75.97 1012.7
31 17:51 SE 24 G 37 16.09 Fair CLR 36.1 22.2 45% 41 75.97 1012.5
31 16:51 SE 24 G 31 16.09 Fair CLR 36.7 21.1 40% 41 75.97 1012.7
31 15:51 SE 31 G 44 16.09 Fair CLR 36.1 22.2 45% 41 76.05 1013.5
31 14:51 SE 24 16.09 Fair CLR 35.6 21.7 44% 40 76.1 1014.2
31 13:51 SE 11 G 31 16.09 Fair CLR 38.3 20.6 36% 42 76.12 1014.7
31 12:51 Calm 16.09 Fair CLR 37.8 21.1 37.8 23.9 38% 42 76.2 1015.5
31 11:51 Vrbl 7 16.09 Fair CLR 36.1 22.2 45% 41 76.23 1015.9
31 10:51 SE 15 16.09 Fair CLR 34.4 22.2 49% 39 76.25 1016.2
31 09:51 SE 9 16.09 Fair CLR 31.7 23.3 61% 37 76.23 1016.0
31 08:51 Calm 16.09 Fair CLR 28.9 25 80% 34 76.2 1015.6
31 07:51 Calm 12.87 Fair CLR 25.6 23.9 90% 27 76.15 1015.0
31 06:51 NE 6 12.87 Partly Cloudy SCT021 SCT031 23.9 23.3 25.6 23.9 96% 23 76.12 1014.7
31 05:51 NE 7 14.48 A Few Clouds FEW029 24.4 23.9 97% 24 76.1 1014.4
31 04:51 NE 6 11.27 Fair CLR 24.4 23.9 97% 24 76.12 1014.5
31 03:51 NE 6 14.48 Fair CLR 24.4 23.3 94% 24 76.12 1014.4
31 02:51 S 7 16.09 Fair CLR 25.6 24.4 93% 27 76.1 1014.5
31 01:51 SE 11 16.09 A Few Clouds FEW022 25.6 24.4 93% 27 76.15 1015.0
31 00:51 SE 11 16.09 A Few Clouds FEW017 25.6 24.4 33.3 25.6 93% 27 76.17 1015.1
30 23:51 SE 7 16.09 Fair CLR 26.1 24.4 90% 28 76.15 1014.9
30 22:51 SE 11 16.09 Fair CLR 26.7 24.4 87% 30 76.12 1014.7
30 21:51 SE 11 16.09 Fair CLR 27.2 24.4 85% 31 76.1 1014.3
30 20:51 SE 17 16.09 Fair CLR 28.3 24.4 79% 33 76.02 1013.4
30 19:51 SE 19 G 31 16.09 Fair CLR 30.6 23.3 65% 35 76 1012.9
30 18:51 SE 24 16.09 Fair CLR 33.3 22.8 38.3 31.7 54% 38 75.97 1012.7
30 17:51 SE 31 G 43 16.09 Fair CLR 35 21.7 46% 39 75.95 1012.5
Date Time (cdt) Wind (kph) Vis. (km) Weather Sky Cond. Air Dwpt Max. Min. Relative Humidity Wind Chill (°C) Heat Index (°C) altimeter (cm) sea level (mb) 1 hr 3 hr 6 hr
6 hour
Temperature (ºC) Pressure Precipitation (cm)